Terminal Aerodrome Forecast
Issued by NWS

Home | Current Version | Previous Version | Text Only | Print | Product List | Glossary On
Versions: 1 2 3 4 5 6 7 8 9 10 11 12 13
239
FTPA31 PHFO 141735
TAFHNY
TAF
PHNY 141735Z 1418/1518 02005KT P6SM SCT025
     FM142000 28008KT P6SM SCT025
      TEMPO 1421/1424 BKN025
     FM150200 03010KT P6SM SCT025
     FM150600 VRB03KT P6SM SCT025
      AMD NOT SKED=

USA.gov is the U.S. government's official web portal to all federal, state and local government web resources and services.